Time;durP1;ratioP1;P1;durP2;ratioP2;P2;SDS_P1;SDS_P2;PMS_P1;PMS_P2;Temp;Humidity;BMP_temperature;BMP_pressure;BME280_temperature;BME280_humidity;BME280_pressure;Samples;Min_cycle;Max_cycle;Signal;HPM_P1;HPM_P2
2021/06/28 00:00:31;;;;;;;4.93;3.70;;;;;;;23.50;49.54;94895.63;2989793;39;20050;-72
2021/06/28 00:02:32;;;;;;;4.30;3.08;;;;;;;23.51;49.65;94891.91;2991935;39;20139;-73
2021/06/28 00:04:35;;;;;;;4.65;3.42;;;;;;;23.53;50.04;94894.31;2983538;39;20489;-72
2021/06/28 00:06:36;;;;;;;5.78;3.35;;;;;;;23.53;50.03;94894.31;2989781;39;20051;-71
2021/06/28 00:08:38;;;;;;;8.82;4.07;;;;;;;23.57;49.74;94900.84;2992819;39;20339;-72
2021/06/28 00:10:40;;;;;;;5.47;3.13;;;;;;;23.51;49.90;94901.78;2985256;39;20080;-73
2021/06/28 00:12:42;;;;;;;3.70;3.15;;;;;;;23.50;49.61;94903.63;2989674;39;20067;-71
2021/06/28 00:14:44;;;;;;;4.15;3.20;;;;;;;23.49;50.17;94901.22;2980255;39;20432;-72
2021/06/28 00:16:46;;;;;;;4.60;3.28;;;;;;;23.50;49.82;94903.63;2991956;39;20289;-73
2021/06/28 00:18:48;;;;;;;5.82;3.28;;;;;;;23.48;49.61;94904.94;2992647;39;20139;-73
2021/06/28 00:20:50;;;;;;;4.43;3.13;;;;;;;23.48;49.89;94902.25;2992303;39;20089;-72
2021/06/28 00:22:52;;;;;;;10.20;3.58;;;;;;;23.53;49.75;94902.34;2985427;39;20140;-72
2021/06/28 00:24:54;;;;;;;7.45;3.90;;;;;;;23.51;50.06;94904.44;2983512;39;20419;-72
2021/06/28 00:26:55;;;;;;;5.25;3.03;;;;;;;23.49;49.90;94903.91;2983107;39;20056;-72
2021/06/28 00:28:57;;;;;;;5.85;3.67;;;;;;;23.44;50.35;94901.91;2983379;39;20138;-71
2021/06/28 00:30:59;;;;;;;5.78;4.00;;;;;;;23.30;50.35;94906.69;2982647;39;20055;-73
2021/06/28 00:33:01;;;;;;;6.63;3.95;;;;;;;22.82;51.28;94905.03;2992616;39;20047;-71
2021/06/28 00:35:04;;;;;;;5.85;3.65;;;;;;;22.69;52.22;94900.72;2991795;39;20123;-73
2021/06/28 00:37:06;;;;;;;7.20;3.60;;;;;;;22.69;52.12;94902.53;2983594;39;20115;-71
2021/06/28 00:39:07;;;;;;;4.00;3.20;;;;;;;22.68;51.72;94899.06;2992610;39;20055;-73
2021/06/28 00:41:09;;;;;;;5.35;3.63;;;;;;;22.74;51.57;94902.69;2994117;39;20070;-80
2021/06/28 00:43:11;;;;;;;4.10;3.25;;;;;;;22.69;51.69;94898.03;2993402;39;20051;-80
2021/06/28 00:45:27;;;;;;;7.75;3.40;;;;;;;22.68;51.92;94896.41;2988551;39;20367;-81
2021/06/28 00:47:29;;;;;;;5.97;3.70;;;;;;;22.62;51.99;94907.97;2984681;39;20080;-81
2021/06/28 00:49:31;;;;;;;4.47;3.58;;;;;;;22.57;52.32;94899.06;2991653;39;20139;-80
2021/06/28 00:51:32;;;;;;;6.55;4.00;;;;;;;22.51;52.33;94900.78;2987759;39;20078;-80
2021/06/28 00:53:34;;;;;;;4.60;3.40;;;;;;;22.48;52.55;94903.91;2984554;39;20115;-79
2021/06/28 00:55:37;;;;;;;4.15;3.40;;;;;;;22.47;52.44;94897.72;2980175;39;20435;-80
2021/06/28 00:57:39;;;;;;;;;;;;;;;22.49;52.13;94903.66;2987788;39;20156;-80
2021/06/28 00:59:42;;;;;;;6.82;3.90;;;;;;;22.29;52.66;94892.47;2983420;39;20242;-79
2021/06/28 01:01:44;;;;;;;5.43;3.20;;;;;;;22.04;53.49;94893.38;2973814;39;20056;-82
2021/06/28 01:03:46;;;;;;;5.00;3.42;;;;;;;21.83;53.92;94888.53;2987765;39;20059;-80
2021/06/28 01:05:47;;;;;;;3.85;3.20;;;;;;;21.68;54.72;94892.41;2990308;39;20071;-81
2021/06/28 01:07:50;;;;;;;4.75;3.20;;;;;;;21.78;54.54;94893.72;2993112;39;20111;-80
2021/06/28 01:09:52;;;;;;;5.85;3.50;;;;;;;21.80;54.40;94897.00;2988063;39;20070;-80
2021/06/28 01:11:54;;;;;;;6.00;3.38;;;;;;;21.93;53.84;94888.00;2983357;39;20099;-72
2021/06/28 01:13:57;;;;;;;3.88;2.80;;;;;;;22.05;53.27;94888.88;2982248;39;20048;-82
2021/06/28 01:15:59;;;;;;;5.53;3.35;;;;;;;22.15;53.17;94893.66;2981145;39;20087;-81
2021/06/28 01:18:02;;;;;;;4.77;3.33;;;;;;;22.16;53.34;94897.97;2975914;39;20064;-78
2021/06/28 01:20:04;;;;;;;6.43;3.83;;;;;;;22.11;53.34;94890.63;2995416;39;20288;-82
2021/06/28 01:22:07;;;;;;;3.78;3.22;;;;;;;22.03;53.83;94891.75;2995129;39;20054;-81
2021/06/28 01:24:10;;;;;;;4.38;3.33;;;;;;;22.15;53.33;94888.31;2981356;39;20083;-79
2021/06/28 01:26:12;;;;;;;4.32;3.03;;;;;;;22.24;53.28;94892.31;2992919;39;20504;-81
2021/06/28 01:28:14;;;;;;;5.15;3.60;;;;;;;22.36;52.90;94889.72;2992334;39;20082;-80
2021/06/28 01:30:26;;;;;;;5.45;3.65;;;;;;;22.42;52.91;94899.47;2980888;39;20088;-80
2021/06/28 01:32:28;;;;;;;4.45;3.22;;;;;;;22.46;53.17;94892.66;2979714;39;20099;-81
2021/06/28 01:34:30;;;;;;;4.20;3.45;;;;;;;22.41;52.91;94897.84;2994747;39;20494;-80
2021/06/28 01:36:32;;;;;;;6.47;3.47;;;;;;;22.33;53.00;94893.66;2994603;39;20356;-81
2021/06/28 01:38:33;;;;;;;6.75;3.70;;;;;;;22.17;53.40;94894.25;2994431;39;20082;-80
2021/06/28 01:40:37;;;;;;;6.07;3.85;;;;;;;22.05;53.73;94899.56;2992787;39;20059;-80
2021/06/28 01:42:39;;;;;;;5.43;3.85;;;;;;;22.04;54.43;94896.03;2980435;39;20056;-80
2021/06/28 01:44:41;;;;;;;5.78;3.50;;;;;;;22.12;54.80;94896.78;2975471;39;20345;-80
2021/06/28 01:46:42;;;;;;;8.32;4.25;;;;;;;22.18;55.09;94901.22;2992494;39;20058;-81
2021/06/28 01:48:44;;;;;;;5.00;3.80;;;;;;;22.24;54.82;94901.16;2993387;39;20380;-80
2021/06/28 01:50:46;;;;;;;7.18;4.05;;;;;;;22.28;54.61;94907.69;2993729;39;20396;-80
2021/06/28 01:52:48;;;;;;;6.00;3.80;;;;;;;22.32;54.78;94902.69;2985872;39;20055;-78
2021/06/28 01:54:50;;;;;;;5.07;4.13;;;;;;;22.36;54.95;94917.22;2982849;39;20116;-79
2021/06/28 01:56:52;;;;;;;7.88;4.35;;;;;;;22.39;54.85;94899.91;2995618;39;20059;-73
2021/06/28 01:58:55;;;;;;;6.57;4.30;;;;;;;22.40;54.83;94905.03;2990768;39;20139;-72
2021/06/28 02:00:57;;;;;;;6.75;4.07;;;;;;;22.38;55.10;94898.31;2980550;39;20074;-71
2021/06/28 02:03:05;;;;;;;9.50;4.43;;;;;;;22.39;54.87;94897.25;2974004;39;20398;-70
2021/06/28 02:05:08;;;;;;;6.70;4.43;;;;;;;22.38;55.05;94907.13;2996707;39;20087;-81
2021/06/28 02:07:10;;;;;;;6.00;4.45;;;;;;;22.41;55.13;94905.84;2982752;39;20122;-79
2021/06/28 02:09:12;;;;;;;5.60;4.60;;;;;;;22.43;55.26;94909.09;2989639;39;20090;-79
2021/06/28 02:11:13;;;;;;;5.50;4.35;;;;;;;22.42;55.54;94913.63;2991693;39;20111;-81
2021/06/28 02:13:21;;;;;;;7.72;4.70;;;;;;;22.42;55.80;94918.16;2990576;39;20074;-80
2021/06/28 02:15:29;;;;;;;8.80;4.30;;;;;;;22.40;55.88;94915.72;2986050;39;20071;-79
2021/06/28 02:17:31;;;;;;;6.68;3.97;;;;;;;22.40;55.65;94915.72;2981520;39;20055;-80
2021/06/28 02:19:33;;;;;;;5.05;4.10;;;;;;;22.40;55.95;94909.56;2992701;39;20183;-80
2021/06/28 02:21:35;;;;;;;5.95;4.38;;;;;;;22.37;56.04;94915.34;2979761;39;20059;-81
2021/06/28 02:23:38;;;;;;;5.97;4.30;;;;;;;22.37;55.87;94913.50;2975058;39;20409;-80
2021/06/28 02:25:40;;;;;;;12.15;4.70;;;;;;;22.35;55.83;94912.09;2975194;39;20068;-81
2021/06/28 02:27:42;;;;;;;5.22;3.90;;;;;;;22.35;55.84;94912.09;2988829;39;20079;-79
2021/06/28 02:29:43;;;;;;;5.95;4.38;;;;;;;22.31;55.74;94911.75;2981644;39;20056;-81
2021/06/28 02:31:45;;;;;;;5.10;4.05;;;;;;;22.28;55.58;94909.50;2992930;39;20662;-79
2021/06/28 02:33:50;;;;;;;6.22;3.90;;;;;;;22.31;55.32;94917.09;2993765;39;20159;-81
2021/06/28 02:35:53;;;;;;;6.28;3.92;;;;;;;22.27;55.79;94915.91;2990379;39;20083;-81
2021/06/28 02:37:54;;;;;;;7.32;4.10;;;;;;;22.16;55.72;94909.44;2995018;39;20090;-80
2021/06/28 02:39:56;;;;;;;4.43;3.75;;;;;;;22.18;55.83;94912.72;2995040;39;20119;-80
2021/06/28 02:41:58;;;;;;;8.38;4.72;;;;;;;22.23;55.93;94918.19;2987367;39;20055;-80
2021/06/28 02:44:00;;;;;;;8.60;4.20;;;;;;;22.28;55.97;94912.19;2990899;39;20058;-82
2021/06/28 02:46:02;;;;;;;5.45;4.30;;;;;;;22.30;56.02;94915.44;2977939;39;20095;-80
2021/06/28 02:48:05;;;;;;;7.28;3.85;;;;;;;22.27;56.00;94905.22;2983565;39;20139;-80
2021/06/28 02:50:13;;;;;;;8.52;4.25;;;;;;;22.18;56.09;94910.03;2993960;39;20115;-79
2021/06/28 02:52:14;;;;;;;5.88;4.50;;;;;;;22.18;56.30;94907.38;2975882;39;20087;-80
2021/06/28 02:54:16;;;;;;;8.57;4.65;;;;;;;22.16;56.40;94911.31;2975233;39;20101;-81
2021/06/28 02:56:19;;;;;;;5.97;4.20;;;;;;;22.13;56.09;94919.75;2983190;39;20376;-80
2021/06/28 02:58:21;;;;;;;8.13;5.38;;;;;;;22.07;56.07;94916.97;2977200;39;20060;-80
2021/06/28 03:00:23;;;;;;;5.50;4.18;;;;;;;22.02;56.42;94918.66;2983463;39;20401;-80
2021/06/28 03:02:26;;;;;;;7.40;4.30;;;;;;;21.97;56.45;94922.00;2977522;39;20056;-81
2021/06/28 03:04:27;;;;;;;7.15;4.85;;;;;;;21.84;56.28;94916.84;2984288;39;20059;-79
2021/06/28 03:06:29;;;;;;;6.38;4.32;;;;;;;21.78;56.35;94915.06;2983499;39;20111;-80
2021/06/28 03:08:31;;;;;;;8.95;4.32;;;;;;;21.74;56.50;94919.22;2984468;39;20070;-79
2021/06/28 03:10:34;;;;;;;11.38;4.10;;;;;;;21.79;56.18;94922.00;2980599;39;20294;-80
2021/06/28 03:12:37;;;;;;;6.45;4.25;;;;;;;21.89;55.94;94919.63;2989744;39;20062;-81
2021/06/28 03:14:40;;;;;;;9.00;4.30;;;;;;;21.98;55.77;94920.16;2981791;39;20159;-80
2021/06/28 03:16:42;;;;;;;7.93;4.15;;;;;;;22.04;55.61;94912.06;2975399;39;20080;-81
2021/06/28 03:18:44;;;;;;;5.05;3.65;;;;;;;22.09;55.72;94919.38;2978384;39;20060;-81
2021/06/28 03:20:46;;;;;;;8.02;4.57;;;;;;;22.05;55.49;94919.03;2984593;39;20070;-81
2021/06/28 03:22:48;;;;;;;5.32;3.55;;;;;;;22.02;55.35;94918.66;2987829;39;20164;-79
2021/06/28 03:24:50;;;;;;;5.82;3.80;;;;;;;21.97;55.30;94919.34;2983370;39;20064;-82
2021/06/28 03:26:51;;;;;;;6.00;3.92;;;;;;;21.99;55.19;94919.94;2979124;39;20052;-83
2021/06/28 03:28:53;;;;;;;6.28;4.13;;;;;;;21.98;55.03;94912.94;2980276;39;20071;-78
2021/06/28 03:30:55;;;;;;;5.75;3.90;;;;;;;22.03;54.50;94915.78;2977693;39;20083;-82
2021/06/28 03:32:57;;;;;;;6.07;3.83;;;;;;;22.06;54.90;94920.66;2984578;39;20628;-82
2021/06/28 03:34:59;;;;;;;5.30;3.88;;;;;;;22.15;54.66;94921.16;2984359;39;20432;-82
2021/06/28 03:37:01;;;;;;;6.28;3.53;;;;;;;22.15;54.55;94917.66;2985296;39;20131;-80
2021/06/28 03:39:03;;;;;;;6.35;3.88;;;;;;;22.18;54.64;94922.56;2986235;39;20047;-81
2021/06/28 03:41:05;;;;;;;7.03;4.50;;;;;;;22.07;54.68;94927.63;2981659;39;20051;-79
2021/06/28 03:43:08;;;;;;;10.10;4.35;;;;;;;22.05;54.75;94927.03;2982833;39;20631;-81
2021/06/28 03:45:12;;;;;;;9.15;4.50;;;;;;;22.08;54.52;94931.91;2983251;39;20088;-79
2021/06/28 03:47:13;;;;;;;7.75;3.75;;;;;;;22.16;54.58;94930.00;2979409;39;20124;-79
2021/06/28 03:49:15;;;;;;;6.05;4.25;;;;;;;22.15;54.21;94937.16;2983276;39;20048;-81
2021/06/28 03:51:17;;;;;;;9.82;4.53;;;;;;;22.15;54.54;94939.00;2987072;39;20451;-81
2021/06/28 03:53:19;;;;;;;5.97;3.90;;;;;;;21.94;54.42;94938.47;2990523;39;20082;-81
2021/06/28 03:55:21;;;;;;;6.95;4.45;;;;;;;21.58;55.16;94948.09;2985454;39;20079;-82
2021/06/28 03:57:22;;;;;;;5.70;4.20;;;;;;;21.31;55.75;94942.19;2986539;39;20088;-80
2021/06/28 03:59:24;;;;;;;7.43;4.32;;;;;;;21.27;56.04;94938.31;2986868;39;20064;-82
2021/06/28 04:01:26;;;;;;;5.93;3.97;;;;;;;21.27;56.14;94936.50;2988537;39;20063;-79
2021/06/28 04:03:33;;;;;;;8.45;4.22;;;;;;;21.31;55.91;94939.50;2988247;39;20146;-81
2021/06/28 04:05:35;;;;;;;9.35;4.53;;;;;;;21.41;55.87;94941.69;2977269;39;20060;-82
2021/06/28 04:07:37;;;;;;;8.05;4.72;;;;;;;21.56;56.17;94939.50;2977265;39;20333;-78
2021/06/28 04:09:39;;;;;;;5.78;3.97;;;;;;;21.76;56.11;94938.47;2978517;39;20067;-79
2021/06/28 04:11:40;;;;;;;6.32;4.30;;;;;;;21.96;55.51;94941.72;2988326;39;20050;-80
2021/06/28 04:13:42;;;;;;;11.10;4.55;;;;;;;22.17;55.16;94936.94;2988241;39;20071;-78
2021/06/28 04:15:44;;;;;;;7.18;4.97;;;;;;;22.35;54.71;94944.94;2986818;39;20066;-82
2021/06/28 04:17:48;;;;;;;7.03;4.78;;;;;;;22.45;54.11;94947.06;2985713;39;20059;-84
2021/06/28 04:19:50;;;;;;;7.60;4.03;;;;;;;22.56;54.05;94945.47;2986216;39;20043;-81
2021/06/28 04:21:52;;;;;;;5.13;4.40;;;;;;;22.66;53.40;94937.72;2984985;39;20047;-79
2021/06/28 04:23:53;;;;;;;6.18;4.28;;;;;;;22.74;53.16;94945.41;2979485;39;20178;-81
2021/06/28 04:25:55;;;;;;;7.35;4.53;;;;;;;22.82;52.83;94946.91;2989557;39;20296;-81
2021/06/28 04:27:57;;;;;;;9.60;5.82;;;;;;;22.92;52.84;94935.69;2985418;39;20155;-82
2021/06/28 04:29:59;;;;;;;6.63;4.45;;;;;;;23.01;52.17;94942.34;2984350;39;20297;-81
2021/06/28 04:32:03;;;;;;;7.75;4.75;;;;;;;22.97;51.79;94941.13;2978211;39;20060;-81
2021/06/28 04:34:05;;;;;;;10.07;5.50;;;;;;;22.33;53.62;94947.03;2985359;39;20059;-80
2021/06/28 04:36:07;;;;;;;9.25;6.03;;;;;;;21.82;55.10;94950.91;2985029;39;20503;-82
2021/06/28 04:38:09;;;;;;;11.73;6.10;;;;;;;21.23;56.78;94950.44;2983721;39;20060;-81
2021/06/28 04:40:14;;;;;;;8.15;5.93;;;;;;;21.10;57.48;94958.56;2985271;39;20054;-80
2021/06/28 04:42:16;;;;;;;9.07;5.72;;;;;;;20.89;57.92;94959.75;2980141;39;20076;-82
2021/06/28 04:44:18;;;;;;;9.60;5.80;;;;;;;20.96;57.87;94956.00;2983535;39;20197;-81
2021/06/28 04:46:19;;;;;;;8.13;5.53;;;;;;;21.12;57.66;94961.81;2979432;39;20055;-81
2021/06/28 04:48:21;;;;;;;7.10;5.60;;;;;;;21.39;56.82;94951.75;2984333;39;20151;-82
2021/06/28 04:50:24;;;;;;;14.23;5.85;;;;;;;21.60;56.44;94956.69;2985477;39;20181;-80
2021/06/28 04:52:25;;;;;;;13.07;6.32;;;;;;;21.78;55.76;94961.19;2986163;39;20137;-79
2021/06/28 04:54:27;;;;;;;10.77;5.47;;;;;;;21.86;55.54;94963.56;2985507;39;20092;-79
2021/06/28 04:56:29;;;;;;;10.10;5.75;;;;;;;21.94;55.25;94957.13;2987175;39;20278;-80
2021/06/28 04:58:32;;;;;;;8.95;5.97;;;;;;;22.02;55.17;94959.47;2979260;39;20144;-72
2021/06/28 05:00:33;;;;;;;11.48;6.25;;;;;;;22.18;54.98;94954.59;2980046;39;20054;-73
2021/06/28 05:02:36;;;;;;;9.63;5.95;;;;;;;22.29;54.49;94964.53;2982202;39;20083;-73
2021/06/28 05:04:38;;;;;;;10.45;5.55;;;;;;;22.43;53.99;94959.81;2986285;39;20135;-72
2021/06/28 05:06:39;;;;;;;12.68;5.15;;;;;;;22.55;54.09;94960.69;2976510;39;20139;-72
2021/06/28 05:08:41;;;;;;;11.45;6.03;;;;;;;22.26;53.75;94962.28;2981850;39;20051;-72
2021/06/28 05:10:43;;;;;;;12.05;6.50;;;;;;;21.95;54.83;94965.94;2979214;39;20443;-73
2021/06/28 05:12:45;;;;;;;14.50;6.28;;;;;;;21.81;55.16;94967.94;2983896;39;20051;-72
2021/06/28 05:14:47;;;;;;;8.75;5.68;;;;;;;22.04;54.99;94965.41;2990386;39;20360;-71
2021/06/28 05:16:49;;;;;;;9.35;5.75;;;;;;;22.02;54.74;94970.16;2991755;39;20067;-82
2021/06/28 05:18:51;;;;;;;9.05;5.68;;;;;;;22.18;55.00;94974.09;2979067;39;20102;-83
2021/06/28 05:20:52;;;;;;;12.43;6.30;;;;;;;22.27;54.39;94967.41;2990563;39;20043;-81
2021/06/28 05:22:54;;;;;;;10.18;6.00;;;;;;;22.18;54.19;94970.59;2986707;39;20079;-80
2021/06/28 05:24:56;;;;;;;10.55;6.07;;;;;;;22.03;54.64;94963.78;2994437;39;20118;-80
2021/06/28 05:26:58;;;;;;;9.07;6.03;;;;;;;22.15;54.89;94973.69;2985786;39;20088;-82
2021/06/28 05:29:00;;;;;;;6.93;6.07;;;;;;;22.23;54.29;94970.75;2983752;39;20056;-81
2021/06/28 05:31:03;;;;;;;8.55;6.43;;;;;;;22.19;53.93;94962.34;2983049;39;20058;-81
2021/06/28 05:33:05;;;;;;;8.85;6.22;;;;;;;22.32;54.31;94972.06;2992843;39;20055;-84
2021/06/28 05:35:08;;;;;;;7.65;5.20;;;;;;;22.62;53.84;94971.25;2995251;39;20047;-83
2021/06/28 05:37:10;;;;;;;8.32;5.57;;;;;;;22.73;53.06;94978.50;2982329;39;20053;-81
2021/06/28 05:39:12;;;;;;;11.65;6.25;;;;;;;22.56;53.74;94980.97;2992533;39;20055;-83
2021/06/28 05:41:16;;;;;;;13.43;6.43;;;;;;;22.43;53.70;94984.66;2989403;39;20158;-81
2021/06/28 05:43:17;;;;;;;8.57;5.60;;;;;;;22.39;53.80;94988.84;2965928;40;20045;-80
2021/06/28 05:45:19;;;;;;;13.48;6.57;;;;;;;22.22;54.24;94993.97;2980612;39;20146;-73
2021/06/28 05:47:23;;;;;;;8.85;6.68;;;;;;;22.48;53.50;94989.34;2980326;39;20056;-73
2021/06/28 05:49:25;;;;;;;8.68;5.95;;;;;;;22.64;54.15;94991.34;2989058;39;20626;-72
2021/06/28 05:51:27;;;;;;;10.40;6.20;;;;;;;22.91;53.56;94990.97;2991755;39;20277;-75
2021/06/28 05:53:29;;;;;;;13.90;6.22;;;;;;;23.15;52.55;94999.06;2989252;39;20063;-75
2021/06/28 05:55:31;;;;;;;13.10;5.53;;;;;;;23.36;51.93;94995.84;2979029;39;20052;-72
2021/06/28 05:57:33;;;;;;;8.98;5.53;;;;;;;23.56;51.21;94998.16;2988527;39;20164;-73
2021/06/28 05:59:35;;;;;;;10.30;5.43;;;;;;;23.65;50.53;95001.31;2982801;39;20058;-73
2021/06/28 06:01:37;;;;;;;8.15;5.10;;;;;;;23.81;50.44;95005.16;2974974;39;20054;-72
2021/06/28 06:03:39;;;;;;;9.17;6.13;;;;;;;23.89;49.78;95004.78;2980970;39;20069;-72
2021/06/28 06:05:41;;;;;;;7.75;6.00;;;;;;;23.91;49.65;95008.84;2981047;39;20059;-73
2021/06/28 06:07:43;;;;;;;10.75;6.00;;;;;;;23.79;49.57;95009.91;2993513;39;20049;-73
2021/06/28 06:09:45;;;;;;;9.52;6.18;;;;;;;23.71;49.87;95009.19;2974104;39;20048;-74
2021/06/28 06:11:47;;;;;;;12.65;11.20;;;;;;;23.80;50.04;95006.22;2990717;39;20067;-72
2021/06/28 06:13:49;;;;;;;8.15;6.20;;;;;;;23.60;49.98;95009.22;2989476;39;20047;-71
2021/06/28 06:15:51;;;;;;;10.23;5.95;;;;;;;23.44;50.39;95008.03;2981751;39;20048;-73
2021/06/28 06:17:55;;;;;;;12.48;5.50;;;;;;;23.58;50.44;95008.63;2973868;39;20064;-72
2021/06/28 06:19:58;;;;;;;9.65;5.68;;;;;;;23.82;49.85;95009.47;2991947;39;20851;-73
2021/06/28 06:22:00;;;;;;;11.40;5.90;;;;;;;24.05;49.55;95009.44;2988042;39;20059;-72
2021/06/28 06:24:02;;;;;;;7.45;5.70;;;;;;;24.26;48.74;95001.81;2990226;39;20387;-72
2021/06/28 06:26:04;;;;;;;9.98;5.43;;;;;;;24.47;49.31;95003.03;2991902;39;20039;-73
2021/06/28 06:28:06;;;;;;;9.93;5.70;;;;;;;24.61;48.36;94995.53;2982514;39;20290;-72
2021/06/28 06:30:09;;;;;;;9.55;5.85;;;;;;;24.76;47.87;95006.56;2977026;39;20108;-74
2021/06/28 06:32:19;;;;;;;10.60;5.90;;;;;;;24.85;48.11;95001.63;2991166;39;20269;-72
2021/06/28 06:34:24;;;;;;;14.57;6.30;;;;;;;24.51;48.41;95004.22;2988999;39;20047;-72
2021/06/28 06:36:26;;;;;;;10.43;6.10;;;;;;;24.60;47.96;95001.97;2991743;39;20055;-73
2021/06/28 06:38:27;;;;;;;9.40;5.63;;;;;;;24.72;47.63;95008.91;2986530;39;20431;-73
2021/06/28 06:40:29;;;;;;;8.48;6.40;;;;;;;24.70;47.29;95002.16;2973655;39;20121;-72
2021/06/28 06:42:31;;;;;;;13.20;5.97;;;;;;;24.69;47.88;95011.22;2990301;39;20103;-71
2021/06/28 06:44:33;;;;;;;8.30;5.07;;;;;;;24.67;47.93;95007.97;2982390;39;20348;-72
2021/06/28 06:46:35;;;;;;;9.95;6.57;;;;;;;24.61;47.60;95003.56;2985162;39;20099;-73
2021/06/28 06:48:37;;;;;;;9.33;6.20;;;;;;;24.60;47.51;95010.00;2987968;39;20404;-76
2021/06/28 06:50:40;;;;;;;7.97;5.97;;;;;;;24.43;48.02;95005.34;2992654;39;20392;-72
2021/06/28 06:52:42;;;;;;;;;;;;;;;24.50;47.81;95008.75;2982688;39;20143;-72
2021/06/28 06:54:44;;;;;;;11.38;6.35;;;;;;;24.53;47.66;95007.47;2977574;39;20249;-73
2021/06/28 06:56:46;;;;;;;10.52;6.28;;;;;;;24.73;47.69;95001.66;2991358;39;20087;-73
2021/06/28 06:58:48;;;;;;;8.00;5.28;;;;;;;24.85;46.81;95007.00;2989241;39;20051;-73
2021/06/28 07:00:50;;;;;;;8.98;5.30;;;;;;;24.71;46.76;94999.22;2989681;39;20055;-73
2021/06/28 07:02:52;;;;;;;8.63;4.88;;;;;;;24.73;46.96;94999.78;2978335;39;20144;-73
2021/06/28 07:04:54;;;;;;;9.90;4.97;;;;;;;24.94;46.40;94998.31;2993125;39;20051;-73
2021/06/28 07:06:56;;;;;;;9.23;5.47;;;;;;;25.08;45.73;95003.34;2987120;39;20306;-72
2021/06/28 07:08:57;;;;;;;7.38;4.50;;;;;;;25.28;44.99;94998.38;2979604;39;20136;-72
2021/06/28 07:10:59;;;;;;;10.00;4.40;;;;;;;25.53;44.59;94999.81;2989495;39;20067;-73
2021/06/28 07:13:01;;;;;;;7.38;4.30;;;;;;;25.75;43.83;95000.69;2991716;39;20055;-72
2021/06/28 07:15:04;;;;;;;9.32;4.82;;;;;;;25.90;43.39;94989.38;2983063;39;20122;-72
2021/06/28 07:17:06;;;;;;;8.18;4.20;;;;;;;25.94;43.20;94998.56;2982218;39;20104;-73
2021/06/28 07:19:08;;;;;;;10.57;5.28;;;;;;;25.87;42.87;94994.38;2979104;39;20145;-75
2021/06/28 07:21:10;;;;;;;9.20;4.07;;;;;;;25.90;42.99;94993.94;2993283;39;20518;-74
2021/06/28 07:23:11;;;;;;;10.07;4.50;;;;;;;26.03;43.03;94988.22;2993103;39;20094;-73
2021/06/28 07:25:14;;;;;;;6.18;4.10;;;;;;;26.21;42.82;94994.34;2990775;39;20079;-73
2021/06/28 07:27:16;;;;;;;7.35;3.53;;;;;;;26.20;41.11;94984.63;2994978;39;20066;-73
2021/06/28 07:29:18;;;;;;;7.38;4.10;;;;;;;26.30;41.22;94990.13;2983376;39;20454;-74
2021/06/28 07:31:21;;;;;;;6.35;4.40;;;;;;;26.46;41.44;94985.78;2979615;39;20183;-72
2021/06/28 07:33:27;;;;;;;6.18;4.95;;;;;;;26.50;41.87;94985.00;2981909;39;20059;-74
2021/06/28 07:35:29;;;;;;;9.93;4.90;;;;;;;26.14;42.62;94981.91;2991100;39;20055;-72
2021/06/28 07:37:31;;;;;;;4.88;4.10;;;;;;;25.51;42.99;94977.78;2983041;39;20056;-71
2021/06/28 07:39:32;;;;;;;7.35;4.68;;;;;;;25.39;43.87;94979.75;2996755;39;20328;-73
2021/06/28 07:41:34;;;;;;;8.57;4.45;;;;;;;25.68;43.79;94978.59;2993208;39;20095;-73
2021/06/28 07:43:37;;;;;;;7.75;4.80;;;;;;;25.77;43.50;94983.50;2983211;39;20066;-74
2021/06/28 07:45:38;;;;;;;11.30;6.10;;;;;;;25.51;43.36;94978.63;2982737;39;20063;-73
2021/06/28 07:47:41;;;;;;;7.30;4.68;;;;;;;25.60;43.42;94989.72;2992462;39;20047;-72
2021/06/28 07:49:42;;;;;;;10.77;4.53;;;;;;;25.94;43.13;94985.16;2983146;39;20408;-73
2021/06/28 07:51:44;;;;;;;7.30;4.75;;;;;;;25.97;43.19;94986.50;2983292;39;20094;-74
2021/06/28 07:53:46;;;;;;;7.28;4.38;;;;;;;26.26;42.62;94983.63;2993023;39;20142;-73
2021/06/28 07:55:48;;;;;;;5.55;3.60;;;;;;;25.89;42.13;94984.25;2992491;39;20062;-73
2021/06/28 07:57:50;;;;;;;12.20;7.00;;;;;;;25.91;42.12;94982.13;2987465;39;20051;-73
2021/06/28 07:59:51;;;;;;;12.20;6.18;;;;;;;26.01;41.65;94984.97;2992420;39;20067;-73
2021/06/28 08:01:53;;;;;;;5.13;3.78;;;;;;;26.01;40.42;94990.31;2991828;39;20266;-82
2021/06/28 08:03:56;;;;;;;8.30;4.40;;;;;;;25.98;39.57;94993.50;2993456;39;20074;-81
2021/06/28 08:05:57;;;;;;;6.57;3.22;;;;;;;25.92;38.82;94987.25;2980155;39;20417;-80
2021/06/28 08:07:59;;;;;;;6.35;3.38;;;;;;;26.20;38.40;94988.16;2992661;39;20050;-81
2021/06/28 08:10:06;;;;;;;5.40;3.72;;;;;;;26.40;38.11;94986.78;2993490;39;20090;-81
2021/06/28 08:12:09;;;;;;;5.53;2.70;;;;;;;26.23;37.52;94989.53;2978108;39;20067;-72
2021/06/28 08:14:12;;;;;;;3.13;2.40;;;;;;;26.22;36.27;94986.03;2993215;39;20090;-72
2021/06/28 08:16:18;;;;;;;3.53;2.80;;;;;;;26.03;36.83;94990.91;2991920;39;20384;-73
2021/06/28 08:18:20;;;;;;;4.35;3.00;;;;;;;26.36;38.21;94992.63;2982757;39;20095;-73
2021/06/28 08:20:22;;;;;;;4.30;2.72;;;;;;;26.51;38.22;94989.31;2992694;39;20051;-72
2021/06/28 08:22:25;;;;;;;4.53;3.00;;;;;;;26.77;37.72;94992.31;2983516;39;20075;-72
2021/06/28 08:24:28;;;;;;;5.30;2.80;;;;;;;26.93;37.18;94990.56;2989723;39;20346;-73
2021/06/28 08:26:30;;;;;;;;;;;;;;;27.21;36.90;95002.09;2987177;39;20155;-71
2021/06/28 08:28:32;;;;;;;6.57;3.22;;;;;;;27.10;35.80;94993.97;2982342;39;19942;-71
2021/06/28 08:30:34;;;;;;;5.15;3.35;;;;;;;27.09;36.04;94996.91;2991604;39;20077;-81
2021/06/28 08:32:37;;;;;;;5.73;3.20;;;;;;;26.84;35.43;94995.59;2976732;39;20084;-81
2021/06/28 08:34:39;;;;;;;5.78;3.47;;;;;;;26.69;34.82;94995.44;2986002;39;20074;-81
2021/06/28 08:36:45;;;;;;;5.10;3.22;;;;;;;26.58;34.74;94994.50;2995584;39;20348;-80
2021/06/28 08:38:47;;;;;;;8.65;4.00;;;;;;;26.68;35.13;94993.81;3000067;39;20054;-80
2021/06/28 08:40:49;;;;;;;7.20;3.70;;;;;;;26.88;35.96;94987.84;2985944;39;20408;-82
2021/06/28 08:42:51;;;;;;;6.40;3.60;;;;;;;27.19;36.00;94986.25;2985536;39;20081;-81
2021/06/28 08:44:53;;;;;;;4.88;2.60;;;;;;;27.54;34.84;94988.41;2986988;39;20150;-80
2021/06/28 08:46:57;;;;;;;7.22;3.20;;;;;;;27.50;32.82;94989.19;2977184;39;20060;-82
2021/06/28 08:48:59;;;;;;;6.82;2.30;;;;;;;27.43;30.92;94985.94;2991545;39;20047;-81
2021/06/28 08:51:01;;;;;;;6.07;3.25;;;;;;;27.65;31.09;94977.72;2978684;39;20068;-80
2021/06/28 08:53:04;;;;;;;5.97;2.20;;;;;;;27.88;31.71;94979.25;2979009;39;20618;-82
2021/06/28 08:55:08;;;;;;;7.00;2.28;;;;;;;28.12;31.67;94974.25;2996342;39;20135;-82
2021/06/28 08:57:11;;;;;;;7.93;2.58;;;;;;;28.29;31.82;94974.84;2992043;39;20067;-83
2021/06/28 08:59:13;;;;;;;3.33;2.35;;;;;;;28.28;32.33;94977.81;2986805;39;20450;-81
2021/06/28 09:01:15;;;;;;;4.95;3.13;;;;;;;28.26;32.43;94982.63;2992883;39;20058;-81
2021/06/28 09:03:20;;;;;;;5.22;2.70;;;;;;;28.14;32.84;94982.88;2984957;39;20067;-82
2021/06/28 09:05:22;;;;;;;5.88;3.20;;;;;;;28.04;33.04;94974.75;2976608;39;20152;-82
2021/06/28 09:07:24;;;;;;;4.63;2.88;;;;;;;28.07;31.82;94979.59;2983556;39;20168;-81
2021/06/28 09:09:34;;;;;;;4.82;3.10;;;;;;;28.29;32.57;94987.53;2993111;39;20304;-80
2021/06/28 09:11:50;;;;;;;3.50;2.78;;;;;;;28.22;32.14;94981.53;2981652;39;20051;-82
2021/06/28 09:13:54;;;;;;;3.15;2.25;;;;;;;28.15;30.99;94981.78;2977314;39;20091;-81
2021/06/28 09:15:56;;;;;;;3.85;2.47;;;;;;;28.24;31.09;94976.72;2980660;39;20135;-80
2021/06/28 09:18:14;;;;;;;3.72;2.20;;;;;;;28.39;30.95;94976.75;2988445;39;20060;-80
2021/06/28 09:20:17;;;;;;;3.03;2.20;;;;;;;28.01;30.08;94984.16;2987099;39;20428;-80
2021/06/28 09:22:29;;;;;;;3.90;2.10;;;;;;;27.69;29.45;94982.31;2993422;39;20058;-81
2021/06/28 09:24:40;;;;;;;2.60;2.10;;;;;;;27.89;29.27;94981.66;2975752;39;20090;-80
2021/06/28 09:26:42;;;;;;;3.42;2.10;;;;;;;28.15;29.55;94985.28;2988262;39;20103;-81
2021/06/28 09:28:47;;;;;;;4.38;2.20;;;;;;;28.45;29.15;94983.78;2979845;39;20092;-80
2021/06/28 09:30:53;;;;;;;6.25;3.03;;;;;;;28.58;29.37;94977.94;2972553;39;20056;-81
2021/06/28 09:32:57;;;;;;;12.02;5.78;;;;;;;28.46;29.95;94985.44;2984449;39;20099;-82
2021/06/28 09:35:00;;;;;;;11.80;7.63;;;;;;;28.26;30.25;94979.94;2989336;39;20143;-79
2021/06/28 09:37:03;;;;;;;;;;;;;;;28.10;30.43;94981.78;2984804;39;20078;-80